createdAt,value
2018-07-20T00:06:48.382Z,5.57
2018-07-20T00:09:23.008Z,6.10
2018-07-20T00:29:15.057Z,7.43
2018-07-20T00:31:50.713Z,5.80
2018-07-20T00:34:25.741Z,6.57
2018-07-20T00:37:00.139Z,5.97
2018-07-20T00:39:33.976Z,17.10
2018-07-20T00:42:07.057Z,13.40
2018-07-20T00:44:42.480Z,6.07
2018-07-20T00:47:16.922Z,6.23
2018-07-20T00:49:51.959Z,5.87
2018-07-20T00:52:26.387Z,7.77
2018-07-20T00:54:59.899Z,5.90
2018-07-20T00:57:46.409Z,6.10
2018-07-20T01:00:21.109Z,11.27
2018-07-20T01:02:55.940Z,8.27
2018-07-20T01:22:46.154Z,6.67
2018-07-20T01:25:20.068Z,6.63
2018-07-20T01:27:52.529Z,8.43
2018-07-20T01:30:26.233Z,7.93
2018-07-20T01:33:01.986Z,6.60
2018-07-20T01:52:53.117Z,7.57
2018-07-20T02:09:52.525Z,7.97
2018-07-20T02:12:26.732Z,6.97
2018-07-20T02:15:00.771Z,10.90
2018-07-20T02:17:35.071Z,6.90
2018-07-20T02:23:03.154Z,8.00
2018-07-20T02:25:37.882Z,6.60
2018-07-20T02:28:13.641Z,6.63
2018-07-20T02:30:49.800Z,6.07
2018-07-20T02:33:25.347Z,6.40
2018-07-20T03:13:39.075Z,7.43
2018-07-20T03:16:13.372Z,8.30
2018-07-20T03:18:46.955Z,11.43
2018-07-20T03:21:22.398Z,6.60
2018-07-20T03:23:57.230Z,7.40
2018-07-20T03:26:32.885Z,7.07
2018-07-20T03:29:11.505Z,7.13
2018-07-20T03:31:47.561Z,7.23
2018-07-20T03:51:40.409Z,7.40
2018-07-20T03:54:15.158Z,8.23
2018-07-20T03:56:50.829Z,7.27
2018-07-20T03:59:25.842Z,7.20
2018-07-20T04:02:00.464Z,7.60
2018-07-20T04:04:37.863Z,8.80
2018-07-20T04:07:12.829Z,6.90
2018-07-20T04:09:48.748Z,7.20
2018-07-20T04:12:25.324Z,8.73
2018-07-20T04:32:19.497Z,7.30
2018-07-20T04:52:12.900Z,6.90
2018-07-20T04:54:49.672Z,6.93
2018-07-20T04:57:26.034Z,8.20
2018-07-20T05:00:02.405Z,6.40
2018-07-20T05:02:37.848Z,7.83
2018-07-20T05:05:13.909Z,7.33
2018-07-20T05:07:49.660Z,8.03
2018-07-20T05:10:23.872Z,7.87
2018-07-20T05:12:58.808Z,6.97
2018-07-20T05:15:42.040Z,7.07
2018-07-20T05:18:28.070Z,7.10
2018-07-20T05:21:02.039Z,8.40
2018-07-20T05:23:36.971Z,6.87
2018-07-20T05:43:31.074Z,11.03
2018-07-20T05:46:04.983Z,9.40
2018-07-20T05:48:40.422Z,6.70
2018-07-20T05:51:15.150Z,8.20
2018-07-20T05:53:50.902Z,7.23
2018-07-20T05:56:25.842Z,10.43
2018-07-20T06:16:19.015Z,7.73
2018-07-20T06:27:33.526Z,7.77
2018-07-20T06:30:09.688Z,14.07
2018-07-20T06:32:44.303Z,13.87
2018-07-20T06:35:29.598Z,14.57
2018-07-20T06:38:04.737Z,6.90
2018-07-20T06:57:57.499Z,6.90
2018-07-20T07:00:33.244Z,6.63
2018-07-20T07:20:26.112Z,7.67
2018-07-20T07:23:00.636Z,7.58
2018-07-20T07:25:34.545Z,7.65
2018-07-20T07:31:06.938Z,7.55
2018-07-20T07:33:44.622Z,10.18
2018-07-20T07:36:19.336Z,6.83
2018-07-20T07:38:54.404Z,7.30
2018-07-20T07:41:28.920Z,7.03
2018-07-20T07:44:04.161Z,7.10
2018-07-20T07:46:38.480Z,6.87
2018-07-20T07:49:14.254Z,8.05
2018-07-20T07:51:47.838Z,6.20
2018-07-20T07:54:20.821Z,6.78
2018-07-20T08:14:14.099Z,7.53
2018-07-20T08:16:50.519Z,8.23
2018-07-20T08:19:26.425Z,7.25
2018-07-20T08:22:00.331Z,6.65
2018-07-20T08:24:35.059Z,8.70
2018-07-20T08:27:10.197Z,6.78
2018-07-20T08:29:45.846Z,7.00
2018-07-20T08:32:21.059Z,8.35
2018-07-20T08:34:56.821Z,7.30
2018-07-20T08:37:32.077Z,8.58
2018-07-20T08:40:06.367Z,10.43
2018-07-20T08:42:40.202Z,9.90
2018-07-20T09:02:33.383Z,7.78
2018-07-20T09:05:07.976Z,6.10
2018-07-20T09:25:01.002Z,5.37
2018-07-20T09:27:37.140Z,5.90
2018-07-20T09:30:11.972Z,6.10
2018-07-20T09:32:46.801Z,6.75
2018-07-20T09:35:21.320Z,5.67
2018-07-20T09:37:56.157Z,5.78
2018-07-20T09:40:29.654Z,5.92
2018-07-20T09:43:08.478Z,5.85
2018-07-20T09:45:44.040Z,5.67
2018-07-20T09:48:21.722Z,5.67
2018-07-20T09:51:02.287Z,5.97
2018-07-20T10:10:56.184Z,6.67
2018-07-20T10:13:31.519Z,6.55
2018-07-20T10:16:07.885Z,8.65
2018-07-20T10:18:41.978Z,6.35
2018-07-20T10:21:16.700Z,6.10
2018-07-20T10:23:49.713Z,6.20
2018-07-20T10:26:24.440Z,6.03
2018-07-20T10:28:58.041Z,6.20
2018-07-20T10:48:50.077Z,7.65
2018-07-20T10:51:24.924Z,8.10
2018-07-20T10:54:00.565Z,6.20
2018-07-20T10:56:33.866Z,6.45
2018-07-20T10:59:09.106Z,6.83
2018-07-20T11:01:43.981Z,6.42
2018-07-20T11:04:16.820Z,7.15
2018-07-20T11:12:38.789Z,5.65
2018-07-20T11:15:12.493Z,6.17
2018-07-20T11:35:06.482Z,7.33
2018-07-20T11:37:41.319Z,7.92
2018-07-20T11:40:17.276Z,5.72
2018-07-20T11:42:51.802Z,5.80
2018-07-20T11:45:26.220Z,6.10
2018-07-20T11:48:01.668Z,6.67
2018-07-20T11:53:29.964Z,6.30
2018-07-20T12:01:52.977Z,7.22
2018-07-20T12:04:29.552Z,6.10
2018-07-20T12:09:55.470Z,6.30
2018-07-20T12:12:31.426Z,6.70
2018-07-20T12:15:05.956Z,7.28
2018-07-20T12:17:39.505Z,6.33
2018-07-20T12:20:12.439Z,6.28
2018-07-20T12:22:48.191Z,6.70
2018-07-20T12:25:22.920Z,6.40
2018-07-20T12:31:01.355Z,7.08
2018-07-20T12:33:34.950Z,7.08
2018-07-20T12:47:55.347Z,7.15
2018-07-20T12:50:30.889Z,6.90
2018-07-20T12:53:06.214Z,7.15
2018-07-20T12:55:41.966Z,7.83
2018-07-20T12:58:15.669Z,7.40
2018-07-20T13:00:53.882Z,7.17
2018-07-20T13:03:35.864Z,6.67
2018-07-20T13:06:11.127Z,6.67
2018-07-20T13:08:46.328Z,7.12
2018-07-20T13:11:19.960Z,8.03
2018-07-20T13:13:56.778Z,7.42
2018-07-20T13:16:49.386Z,7.15
2018-07-20T13:19:23.906Z,9.25
2018-07-20T13:21:59.019Z,14.33
2018-07-20T13:24:34.078Z,7.45
2018-07-20T13:27:17.714Z,7.67
2018-07-20T13:29:51.628Z,8.30
2018-07-20T13:32:28.984Z,7.60
2018-07-20T13:35:03.128Z,6.87
2018-07-20T13:37:37.521Z,7.17
2018-07-20T13:40:13.273Z,7.60
2018-07-20T13:42:47.106Z,7.47
2018-07-20T13:45:32.385Z,7.25
2018-07-20T13:48:08.512Z,7.37
2018-07-20T13:50:47.367Z,7.60
2018-07-20T13:53:21.989Z,7.03
2018-07-20T13:56:08.776Z,6.90
2018-07-20T13:58:43.838Z,7.95
2018-07-20T14:04:15.207Z,16.02
2018-07-20T14:06:49.701Z,7.45
2018-07-20T14:09:24.766Z,6.70
2018-07-20T14:17:56.207Z,8.23
2018-07-20T14:20:31.403Z,8.33
2018-07-20T14:23:05.311Z,7.55
2018-07-20T14:25:40.234Z,7.47
2018-07-20T14:28:33.704Z,7.22
2018-07-20T14:31:10.584Z,7.40
2018-07-20T14:33:47.987Z,7.92
2018-07-20T14:36:22.813Z,7.12
2018-07-20T14:56:16.184Z,7.50
2018-07-20T15:07:44.934Z,6.90
2018-07-20T15:10:22.119Z,7.47
2018-07-20T15:13:02.482Z,8.93
2018-07-20T15:32:53.814Z,9.53
2018-07-20T15:35:27.412Z,7.97
2018-07-20T15:38:01.221Z,7.60
2018-07-20T15:57:56.238Z,10.07
2018-07-20T16:17:48.185Z,7.87
2018-07-20T16:20:21.773Z,10.23
2018-07-20T16:22:55.598Z,7.87
2018-07-20T16:42:48.773Z,8.20
2018-07-20T17:02:42.638Z,11.57
2018-07-20T17:05:18.324Z,11.30
2018-07-20T17:07:51.812Z,11.53
2018-07-20T17:10:25.961Z,12.60
2018-07-20T17:12:59.834Z,9.63
2018-07-20T17:15:34.562Z,9.67
2018-07-20T17:18:08.476Z,10.17
2018-07-20T17:20:41.846Z,18.00
2018-07-20T17:23:15.676Z,13.23
2018-07-20T17:25:50.505Z,17.37
2018-07-20T17:28:25.112Z,20.13
2018-07-20T17:31:00.861Z,19.43
2018-07-20T17:33:35.866Z,8.80
2018-07-20T17:36:11.354Z,17.83
2018-07-20T17:56:08.331Z,16.40
2018-07-20T18:13:09.059Z,8.93
2018-07-20T18:15:44.529Z,10.07
2018-07-20T18:18:19.260Z,9.57
2018-07-20T18:20:55.187Z,10.10
2018-07-20T18:23:28.073Z,9.83
2018-07-20T18:26:03.517Z,11.40
2018-07-20T18:28:38.348Z,11.30
2018-07-20T18:31:12.029Z,9.50
2018-07-20T18:33:48.093Z,9.37
2018-07-20T18:36:23.875Z,9.80
2018-07-20T18:39:00.235Z,8.60
2018-07-20T18:41:36.041Z,9.10
2018-07-20T18:44:13.479Z,11.47
2018-07-20T18:46:51.990Z,8.73
2018-07-20T19:06:46.632Z,7.37
2018-07-20T19:09:21.740Z,8.10
2018-07-20T19:11:55.656Z,7.80
2018-07-20T19:14:31.880Z,6.53
2018-07-20T19:17:06.749Z,6.80
2018-07-20T19:19:41.570Z,6.83
2018-07-20T19:25:12.026Z,7.67
2018-07-20T19:27:47.053Z,6.70
2018-07-20T19:30:32.328Z,5.70
2018-07-20T19:33:09.621Z,6.60
2018-07-20T19:35:44.139Z,5.70
2018-07-20T19:38:20.812Z,6.73
2018-07-20T19:40:58.715Z,6.07
2018-07-20T19:43:36.115Z,6.37
2018-07-20T19:46:09.949Z,5.60
2018-07-20T19:48:43.000Z,6.70
2018-07-20T19:51:31.247Z,6.80
2018-07-20T19:54:04.238Z,6.20
2018-07-20T19:56:38.149Z,7.97
2018-07-20T19:59:20.038Z,6.10
2018-07-20T20:01:56.105Z,5.33
2018-07-20T20:04:31.545Z,5.70
2018-07-20T20:07:06.971Z,5.87
2018-07-20T20:09:43.047Z,5.17
2018-07-20T20:12:20.030Z,5.67
2018-07-20T20:14:54.245Z,7.10
2018-07-20T20:20:28.888Z,5.73
2018-07-20T20:25:51.561Z,6.73
2018-07-20T20:28:25.158Z,6.90
2018-07-20T20:31:00.907Z,8.97
2018-07-20T20:33:35.737Z,8.67
2018-07-20T20:36:11.062Z,9.07
2018-07-20T20:41:42.585Z,9.83
2018-07-20T20:44:20.252Z,9.67
2018-07-20T20:46:56.411Z,7.83
2018-07-20T20:49:31.547Z,7.50
2018-07-20T20:52:08.030Z,6.10
2018-07-20T20:54:41.926Z,6.00
2018-07-20T20:57:16.116Z,4.90
2018-07-20T21:17:10.111Z,5.53
2018-07-20T21:19:44.849Z,5.20
2018-07-20T21:22:19.673Z,6.30
2018-07-20T21:24:54.356Z,5.20
2018-07-20T21:30:21.389Z,5.63
2018-07-20T21:32:58.625Z,5.23
2018-07-20T21:35:46.617Z,5.13
2018-07-20T21:38:21.238Z,4.73
2018-07-20T21:40:54.841Z,5.80
2018-07-20T21:43:30.289Z,5.43
2018-07-20T21:46:04.501Z,4.70
2018-07-20T21:48:39.244Z,4.63
2018-07-20T21:59:53.539Z,4.23
2018-07-20T22:02:27.964Z,4.97
2018-07-20T22:05:02.678Z,4.30
2018-07-20T22:24:52.998Z,5.90
2018-07-20T22:33:15.893Z,4.17
2018-07-20T22:35:50.923Z,5.23
2018-07-20T22:38:24.835Z,4.10
2018-07-20T22:40:59.765Z,7.20
2018-07-20T22:43:35.915Z,3.90
2018-07-20T22:46:09.665Z,4.30
2018-07-20T22:48:42.719Z,5.70
2018-07-20T23:28:52.560Z,4.93
2018-07-20T23:31:28.306Z,4.67
2018-07-20T23:34:04.233Z,4.30
2018-07-20T23:36:39.060Z,4.47
2018-07-20T23:39:15.605Z,3.80
2018-07-20T23:41:49.439Z,4.80
2018-07-20T23:44:24.066Z,5.40
2018-07-20T23:46:57.152Z,4.43
2018-07-20T23:49:31.883Z,5.63
2018-07-20T23:52:07.632Z,5.27
2018-07-20T23:54:42.149Z,6.93
2018-07-20T23:57:15.450Z,5.17
2018-07-20T23:59:49.698Z,5.17
